Dillon, Montana
Current Conditions -  °F | °C
As of 8:53 AM on Sunday 23 Nov 2014 (Local Time) from KDLN Reporting Station
Overcast Overcast  
Wind Chill: -7°   Ceiling: 7000
Heat Index: -1°   Visibility: 10mi
Dew Point: -8°   Wind: 16mph
Humidity: 59%   Direction: 230°SW
Pressure: 30.03"   Gusts: NA
Location:  45.22°N, 112.64°W
Report Text: KDLN 231553Z AUTO 23014KT 10SM OVC070 M01/M08 A3003 RMK AO2 SLP200 T10111083
Loading
Personal Weather Stations






























Interactive Weather Map New forecast layout! Learn more

10-Day Weather Forecast

Advertisements
Track Severe Weather on mobile